Time;durP1;ratioP1;P1;durP2;ratioP2;P2;SDS_P1;SDS_P2;PMS_P1;PMS_P2;Temp;Humidity;BMP_temperature;BMP_pressure;BME280_temperature;BME280_humidity;BME280_pressure;Samples;Min_cycle;Max_cycle;Signal;HPM_P1;HPM_P2
2023/12/06 17:16:32;;;;;;;15.53;7.57;;;4.30;99.90;;;;;;2426034;22;20239;-44
2023/12/06 17:18:58;;;;;;;15.53;7.80;;;4.30;99.90;;;;;;5026814;28;20231;-45
2023/12/06 17:21:24;;;;;;;13.87;9.17;;;4.20;99.90;;;;;;5013878;28;20746;-49
2023/12/06 17:23:51;;;;;;;16.83;8.50;;;4.20;99.90;;;;;;5010277;28;20188;-48
2023/12/06 17:26:19;;;;;;;15.60;8.67;;;4.20;99.90;;;;;;5016838;28;20713;-48
2023/12/06 17:28:49;;;;;;;34.63;21.63;;;4.20;99.90;;;;;;5012498;28;20232;-46
2023/12/06 17:31:15;;;;;;;18.50;11.10;;;4.10;99.90;;;;;;5026802;28;20219;-47
2023/12/06 17:33:41;;;;;;;33.03;20.77;;;4.10;99.90;;;;;;5027999;28;20223;-46
2023/12/06 17:36:07;;;;;;;20.10;11.00;;;4.10;99.90;;;;;;5016452;28;20190;-47
2023/12/06 17:38:33;;;;;;;18.40;11.10;;;4.10;99.90;;;;;;5037635;28;20234;-47
2023/12/06 17:41:02;;;;;;;14.60;10.30;;;4.00;99.90;;;;;;5020437;28;20219;-48
2023/12/06 17:43:29;;;;;;;26.47;14.63;;;4.00;99.90;;;;;;5023748;28;20175;-48
2023/12/06 17:45:55;;;;;;;26.87;17.73;;;4.10;99.90;;;;;;5036282;28;20210;-48
2023/12/06 17:48:20;;;;;;;31.00;21.10;;;4.00;99.90;;;;;;5036753;28;20182;-48
2023/12/06 17:50:46;;;;;;;58.17;34.87;;;4.00;99.90;;;;;;5027500;28;20184;-46
2023/12/06 17:53:12;;;;;;;35.07;19.70;;;4.00;99.90;;;;;;5035673;28;20181;-48
2023/12/06 17:55:37;;;;;;;41.17;23.93;;;4.00;99.90;;;;;;5020405;28;20572;-48
2023/12/06 17:58:04;;;;;;;20.33;11.10;;;4.00;99.90;;;;;;5015809;28;20192;-48
2023/12/06 18:00:30;;;;;;;16.67;9.97;;;4.00;99.90;;;;;;5015942;28;20287;-47
2023/12/06 18:02:55;;;;;;;26.57;16.23;;;4.00;99.90;;;;;;5022905;28;20673;-49
2023/12/06 18:05:21;;;;;;;26.00;11.40;;;4.00;99.90;;;;;;5025224;28;20289;-47
2023/12/06 18:07:49;;;;;;;21.90;13.80;;;4.10;99.90;;;;;;5013913;28;20224;-49
2023/12/06 18:10:20;;;;;;;13.47;7.73;;;4.10;99.90;;;;;;5029267;28;20210;-48
2023/12/06 18:12:54;;;;;;;12.67;7.97;;;4.10;99.90;;;;;;5029988;28;20634;-48
2023/12/06 18:15:20;;;;;;;33.13;20.00;;;4.10;99.90;;;;;;5012187;28;20207;-50
2023/12/06 18:17:46;;;;;;;29.70;18.03;;;4.10;99.90;;;;;;5011357;28;20206;-46
2023/12/06 18:20:12;;;;;;;25.23;14.73;;;4.10;99.90;;;;;;5011478;28;20218;-48
2023/12/06 18:22:38;;;;;;;22.73;15.93;;;4.10;99.90;;;;;;5012514;28;20187;-47
2023/12/06 18:25:06;;;;;;;26.97;16.23;;;4.10;99.90;;;;;;5012386;28;20289;-48
2023/12/06 18:27:32;;;;;;;19.70;13.23;;;4.10;99.90;;;;;;5026737;28;20194;-47
2023/12/06 18:29:58;;;;;;;18.97;12.17;;;4.10;99.90;;;;;;5035652;28;20194;-47
2023/12/06 18:32:23;;;;;;;16.83;11.53;;;4.00;99.90;;;;;;5028891;28;20207;-48
2023/12/06 18:34:49;;;;;;;16.40;10.83;;;4.00;99.90;;;;;;5017515;28;20712;-47
2023/12/06 18:37:15;;;;;;;17.07;11.83;;;4.00;99.90;;;;;;5023534;28;20182;-49
2023/12/06 18:39:43;;;;;;;18.80;10.67;;;3.90;99.90;;;;;;5015166;28;20261;-47
2023/12/06 18:42:09;;;;;;;18.40;10.73;;;3.90;99.90;;;;;;5016700;28;20639;-47
2023/12/06 18:48:03;;;;;;;15.83;10.83;;;3.70;99.90;;;;;;5014578;28;20225;-46
2023/12/06 18:50:29;;;;;;;15.50;11.07;;;3.70;99.90;;;;;;4996070;28;20196;-48
2023/12/06 18:52:54;;;;;;;14.17;9.77;;;3.60;99.90;;;;;;5023707;28;20191;-48
2023/12/06 18:55:27;;;;;;;21.10;12.17;;;3.50;99.90;;;;;;5011032;28;20239;-47
2023/12/06 18:57:53;;;;;;;19.90;13.77;;;3.50;99.90;;;;;;5025130;28;20236;-47
2023/12/06 19:00:18;;;;;;;16.27;11.30;;;3.40;99.90;;;;;;5027465;28;20340;-48
2023/12/06 19:02:57;;;;;;;19.03;9.90;;;3.30;99.90;;;;;;5016207;28;20675;-47
2023/12/06 19:05:25;;;;;;;17.83;10.03;;;3.20;99.90;;;;;;5026053;28;20198;-48
2023/12/06 19:07:57;;;;;;;17.40;11.10;;;3.10;99.90;;;;;;5034404;28;20596;-47
2023/12/06 19:10:23;;;;;;;15.03;10.03;;;3.10;99.90;;;;;;5030150;28;20213;-47
2023/12/06 19:12:48;;;;;;;16.77;10.47;;;3.00;99.90;;;;;;5012146;28;20650;-47
2023/12/06 19:15:17;;;;;;;13.57;9.60;;;2.90;99.90;;;;;;5021545;28;20178;-46
2023/12/06 19:17:42;;;;;;;18.40;10.67;;;2.90;99.90;;;;;;5010497;28;20202;-47
2023/12/06 19:20:08;;;;;;;18.27;10.37;;;2.90;99.90;;;;;;5017908;28;20605;-46
2023/12/06 19:22:34;;;;;;;15.70;9.83;;;2.80;99.90;;;;;;5012399;28;20754;-47
2023/12/06 19:25:00;;;;;;;16.87;10.33;;;2.80;99.90;;;;;;5024653;28;20214;-48
2023/12/06 19:27:26;;;;;;;19.40;10.23;;;2.70;99.90;;;;;;5022350;28;20174;-46
2023/12/06 19:29:54;;;;;;;20.73;10.30;;;2.70;99.90;;;;;;5025742;28;20620;-47
2023/12/06 19:32:23;;;;;;;14.63;10.53;;;2.60;99.90;;;;;;5033880;28;20256;-47
2023/12/06 19:34:49;;;;;;;15.90;10.40;;;2.60;99.90;;;;;;5034696;28;20188;-47
2023/12/06 19:37:23;;;;;;;15.60;11.17;;;2.50;99.90;;;;;;5034576;28;20641;-47
2023/12/06 19:39:49;;;;;;;15.83;10.33;;;2.50;99.90;;;;;;5035713;28;20604;-47
2023/12/06 19:42:14;;;;;;;17.13;10.40;;;2.40;99.90;;;;;;5034756;28;20256;-48
2023/12/06 19:44:43;;;;;;;17.57;9.97;;;2.40;99.90;;;;;;5034713;28;20183;-48
2023/12/06 19:47:08;;;;;;;17.23;10.97;;;2.40;99.90;;;;;;5034482;28;20641;-47
2023/12/06 19:49:34;;;;;;;20.83;11.87;;;2.40;99.90;;;;;;5034454;28;20255;-47
2023/12/06 19:52:00;;;;;;;21.00;11.47;;;2.30;99.90;;;;;;5033339;28;20235;-47
2023/12/06 19:54:26;;;;;;;16.93;11.43;;;2.30;99.90;;;;;;5034197;28;20185;-48
2023/12/06 19:56:51;;;;;;;19.30;11.43;;;2.30;99.90;;;;;;5034265;28;20181;-48
2023/12/06 19:59:21;;;;;;;14.80;10.93;;;2.30;99.90;;;;;;5034196;28;20207;-49
2023/12/06 20:01:48;;;;;;;21.50;11.30;;;2.20;99.90;;;;;;5034359;28;20195;-47
2023/12/06 20:04:14;;;;;;;17.57;11.93;;;2.20;99.90;;;;;;5034490;28;20220;-47
2023/12/06 20:06:41;;;;;;;19.60;11.57;;;2.20;99.90;;;;;;5034185;28;20232;-48
2023/12/06 20:09:07;;;;;;;19.70;12.20;;;2.20;99.90;;;;;;5034385;28;20247;-48
2023/12/06 20:11:37;;;;;;;19.13;11.70;;;2.10;99.90;;;;;;5034095;28;20213;-48
2023/12/06 20:17:24;;;;;;;21.13;11.27;;;2.10;99.90;;;;;;5034086;28;20195;-49
2023/12/06 20:19:50;;;;;;;16.83;11.30;;;2.10;99.90;;;;;;5032811;28;20193;-47
2023/12/06 20:22:17;;;;;;;18.33;11.30;;;2.00;99.90;;;;;;5034137;28;20173;-47
2023/12/06 20:24:43;;;;;;;19.77;11.57;;;2.00;99.90;;;;;;5033945;28;20223;-46
2023/12/06 20:27:09;;;;;;;17.80;12.53;;;2.00;99.90;;;;;;5034159;28;20641;-48
2023/12/06 20:29:34;;;;;;;17.70;10.90;;;1.90;99.90;;;;;;5034328;28;20213;-46
2023/12/06 20:32:02;;;;;;;17.10;11.23;;;1.90;99.90;;;;;;5033824;28;20179;-46
2023/12/06 20:34:29;;;;;;;17.43;11.23;;;1.90;99.90;;;;;;5034022;28;20180;-47
2023/12/06 20:36:54;;;;;;;18.43;11.40;;;1.80;99.90;;;;;;5034132;28;20656;-47
2023/12/06 20:39:22;;;;;;;21.90;12.37;;;1.80;99.90;;;;;;5032589;28;20224;-47
2023/12/06 20:41:48;;;;;;;19.13;12.33;;;1.80;99.90;;;;;;5030718;28;20189;-47
2023/12/06 20:44:13;;;;;;;17.90;12.33;;;1.80;99.90;;;;;;5034162;28;20203;-47
2023/12/06 20:46:45;;;;;;;19.87;11.83;;;1.70;99.90;;;;;;5032682;28;20705;-48
2023/12/06 20:49:11;;;;;;;17.70;11.47;;;1.70;99.90;;;;;;5033744;28;20203;-47
2023/12/06 20:51:38;;;;;;;17.93;11.43;;;1.60;99.90;;;;;;5032513;28;20185;-48
2023/12/06 20:54:03;;;;;;;15.87;10.50;;;1.60;99.90;;;;;;5032631;28;20188;-47
2023/12/06 20:56:29;;;;;;;16.17;10.93;;;1.60;99.90;;;;;;5033535;28;20188;-49
2023/12/06 20:59:01;;;;;;;15.27;10.87;;;1.50;99.90;;;;;;5033235;28;20197;-48
2023/12/06 21:01:33;;;;;;;20.17;12.30;;;1.50;99.90;;;;;;5033460;28;20173;-48
2023/12/06 21:04:02;;;;;;;15.90;10.77;;;1.40;99.90;;;;;;5033297;28;20189;-47
2023/12/06 21:06:30;;;;;;;18.03;10.90;;;1.40;99.90;;;;;;5033092;28;20581;-48
2023/12/06 21:08:58;;;;;;;14.53;10.20;;;1.30;99.90;;;;;;5032404;28;20271;-48
2023/12/06 21:11:26;;;;;;;17.03;10.83;;;1.30;99.90;;;;;;5033618;28;20188;-48
2023/12/06 21:13:56;;;;;;;15.00;10.00;;;1.20;99.90;;;;;;5032327;28;20185;-48
2023/12/06 21:16:25;;;;;;;14.80;10.10;;;1.20;99.90;;;;;;5033380;28;20193;-48
2023/12/06 21:18:51;;;;;;;18.07;10.57;;;1.10;99.90;;;;;;5015438;28;20222;-47
2023/12/06 21:24:39;;;;;;;18.73;11.40;;;1.00;99.90;;;;;;5033325;28;20187;-47
2023/12/06 21:27:05;;;;;;;16.03;10.30;;;1.00;99.90;;;;;;5033591;28;20185;-47
2023/12/06 21:29:37;;;;;;;17.93;10.60;;;1.00;99.90;;;;;;5032944;28;20218;-47
2023/12/06 21:32:04;;;;;;;16.27;10.73;;;1.00;99.90;;;;;;5024680;28;20219;-47
2023/12/06 21:34:30;;;;;;;16.77;10.83;;;0.90;99.90;;;;;;5033587;28;20180;-47
2023/12/06 21:36:56;;;;;;;18.13;12.00;;;0.90;99.90;;;;;;5033822;28;20177;-48
2023/12/06 21:39:21;;;;;;;15.57;10.37;;;0.90;99.90;;;;;;5033113;28;20521;-47
2023/12/06 21:41:47;;;;;;;18.57;10.50;;;0.90;99.90;;;;;;5032028;28;20213;-47
2023/12/06 21:47:36;;;;;;;16.17;10.77;;;0.90;99.90;;;;;;5033143;28;20211;-46
2023/12/06 21:50:02;;;;;;;17.07;10.70;;;0.90;99.90;;;;;;5032027;28;20201;-47
2023/12/06 21:52:28;;;;;;;15.13;10.50;;;1.00;99.90;;;;;;5033117;28;20189;-47
2023/12/06 21:54:53;;;;;;;17.00;10.77;;;1.00;99.90;;;;;;5033234;28;20175;-47
2023/12/06 21:57:20;;;;;;;14.13;10.40;;;1.00;99.90;;;;;;5033203;28;20546;-47
2023/12/06 21:59:49;;;;;;;15.80;9.73;;;1.00;99.90;;;;;;5032887;28;20197;-47
2023/12/06 22:02:16;;;;;;;16.13;11.07;;;1.10;99.90;;;;;;5031938;28;20185;-47
2023/12/06 22:05:32;;;;;;;14.63;9.57;;;1.10;99.90;;;;;;5033063;28;20173;-47
2023/12/06 22:08:03;;;;;;;17.03;10.63;;;1.10;99.90;;;;;;5035000;28;20250;-49
2023/12/06 22:10:28;;;;;;;18.40;11.10;;;1.10;99.90;;;;;;5036862;28;20233;-48
2023/12/06 22:12:54;;;;;;;16.27;10.77;;;1.10;99.90;;;;;;5036837;28;20177;-48
2023/12/06 22:15:43;;;;;;;17.77;10.43;;;1.10;99.90;;;;;;5040020;28;20197;-49
2023/12/06 22:18:15;;;;;;;16.73;10.87;;;1.10;99.90;;;;;;5040815;28;20203;-49
2023/12/06 22:20:42;;;;;;;17.37;11.20;;;1.10;99.90;;;;;;5043446;28;20205;-47
2023/12/06 22:23:07;;;;;;;16.60;10.53;;;1.10;99.90;;;;;;5052595;28;20173;-47
2023/12/06 22:25:35;;;;;;;16.53;10.27;;;1.10;99.90;;;;;;5042502;28;20205;-48
2023/12/06 22:28:01;;;;;;;15.90;10.70;;;1.10;99.90;;;;;;5041217;28;20181;-47
2023/12/06 22:30:26;;;;;;;18.53;11.03;;;1.10;99.90;;;;;;5040821;28;20200;-49
2023/12/06 22:32:56;;;;;;;17.77;11.00;;;1.10;99.90;;;;;;5041439;28;20258;-46
2023/12/06 22:35:22;;;;;;;18.33;11.10;;;1.10;99.90;;;;;;5036350;28;20173;-45
2023/12/06 22:37:49;;;;;;;16.90;10.53;;;1.10;99.90;;;;;;5035222;28;20193;-48
2023/12/06 22:40:15;;;;;;;18.40;10.57;;;1.10;99.90;;;;;;5041419;28;20545;-48
2023/12/06 22:42:44;;;;;;;14.87;10.30;;;1.10;99.90;;;;;;5041621;28;20196;-47
2023/12/06 22:45:09;;;;;;;20.57;11.03;;;1.20;99.90;;;;;;5041061;28;20212;-48
2023/12/06 22:47:41;;;;;;;17.17;10.90;;;1.10;99.90;;;;;;5040984;28;20188;-48
2023/12/06 22:50:07;;;;;;;16.80;10.20;;;1.10;99.90;;;;;;5041527;28;20199;-48
2023/12/06 22:52:54;;;;;;;19.43;10.70;;;1.10;99.90;;;;;;5013872;28;20200;-46
2023/12/06 22:55:20;;;;;;;17.17;9.80;;;1.00;99.90;;;;;;5035837;28;20211;-46
2023/12/06 22:57:47;;;;;;;14.93;9.97;;;1.00;99.90;;;;;;5036289;28;20216;-46
2023/12/06 23:00:16;;;;;;;15.33;9.73;;;0.90;99.90;;;;;;5036047;28;20205;-45
2023/12/06 23:02:42;;;;;;;15.33;10.20;;;0.90;99.90;;;;;;5035234;28;20184;-46
2023/12/06 23:05:10;;;;;;;13.80;10.30;;;0.80;99.90;;;;;;5035507;28;20211;-47
2023/12/06 23:07:35;;;;;;;16.43;10.03;;;0.70;99.90;;;;;;5017781;28;20184;-47
2023/12/06 23:10:03;;;;;;;17.43;10.83;;;0.70;99.90;;;;;;5036112;28;20266;-48
2023/12/06 23:12:28;;;;;;;16.03;10.13;;;0.70;99.90;;;;;;5035319;28;20173;-47
2023/12/06 23:14:57;;;;;;;15.27;9.97;;;0.60;99.90;;;;;;5034199;28;20188;-47
2023/12/06 23:17:23;;;;;;;18.13;11.13;;;0.60;99.90;;;;;;5034390;28;20204;-46
2023/12/06 23:19:55;;;;;;;19.37;10.93;;;0.50;99.90;;;;;;5034447;28;20222;-46
2023/12/06 23:22:23;;;;;;;16.97;10.73;;;0.60;99.90;;;;;;5034353;28;20168;-46
2023/12/06 23:24:50;;;;;;;16.77;11.40;;;0.60;99.90;;;;;;5033820;28;20220;-46
2023/12/06 23:27:17;;;;;;;16.53;10.33;;;0.50;99.90;;;;;;5016156;28;20292;-47
2023/12/06 23:29:46;;;;;;;17.63;11.20;;;0.60;99.90;;;;;;5034234;28;20215;-46
2023/12/06 23:32:11;;;;;;;17.73;11.23;;;0.50;99.90;;;;;;5032920;28;20184;-47
2023/12/06 23:34:38;;;;;;;16.80;10.67;;;0.60;99.90;;;;;;5034300;28;20182;-47
2023/12/06 23:37:04;;;;;;;19.50;11.63;;;0.50;99.90;;;;;;5034338;28;20191;-47
2023/12/06 23:39:31;;;;;;;15.17;10.33;;;0.50;99.90;;;;;;5034114;28;20283;-46
2023/12/06 23:41:56;;;;;;;18.27;11.80;;;0.40;99.90;;;;;;5033953;28;20211;-47
2023/12/06 23:44:22;;;;;;;16.80;11.20;;;0.40;99.90;;;;;;5034066;28;20208;-48
2023/12/06 23:46:48;;;;;;;20.87;11.50;;;0.40;99.90;;;;;;5033765;28;20676;-47
2023/12/06 23:49:17;;;;;;;16.43;11.23;;;0.30;99.90;;;;;;5033055;28;20216;-47
2023/12/06 23:51:42;;;;;;;14.60;10.27;;;0.30;99.90;;;;;;5033792;28;20179;-47
2023/12/06 23:54:13;;;;;;;16.93;11.23;;;0.30;99.90;;;;;;5033925;28;20274;-48
2023/12/06 23:56:42;;;;;;;16.33;10.63;;;0.30;99.90;;;;;;5033825;28;20184;-46
2023/12/06 23:59:09;;;;;;;18.90;10.93;;;0.20;99.90;;;;;;5032486;28;20290;-46
